Time;durP1;ratioP1;P1;durP2;ratioP2;P2;SDS_P1;SDS_P2;PMS_P1;PMS_P2;Temp;Humidity;BMP_temperature;BMP_pressure;BME280_temperature;BME280_humidity;BME280_pressure;Samples;Min_cycle;Max_cycle;Signal;HPM_P1;HPM_P2
2022/01/29 00:00:33;;;;;;;57.85;32.17;;;;;;;5.04;92.31;102898.31;5025041;28;20041;-60
2022/01/29 00:02:58;;;;;;;59.67;32.30;;;;;;;5.03;92.11;102896.63;5013522;28;20033;-59
2022/01/29 00:05:24;;;;;;;56.83;33.58;;;;;;;4.95;92.56;102891.72;5021244;28;20084;-59
2022/01/29 00:07:49;;;;;;;57.08;31.70;;;;;;;5.08;92.70;102886.72;5013522;28;20114;-59
2022/01/29 00:10:14;;;;;;;58.13;30.55;;;;;;;5.01;92.91;102880.03;5019371;28;20116;-60
2022/01/29 00:12:41;;;;;;;60.70;31.15;;;;;;;5.03;92.90;102871.16;5023094;28;20044;-59
2022/01/29 00:15:07;;;;;;;57.28;30.35;;;;;;;4.99;92.96;102869.63;5024605;28;20044;-61
2022/01/29 00:17:32;;;;;;;55.80;31.75;;;;;;;5.03;92.97;102868.53;5024283;28;20033;-60
2022/01/29 00:19:57;;;;;;;60.33;33.03;;;;;;;4.95;93.63;102861.00;5015150;28;20038;-60
2022/01/29 00:22:23;;;;;;;60.92;31.77;;;;;;;4.97;92.90;102859.16;5024932;28;20465;-61
2022/01/29 00:24:48;;;;;;;57.40;32.42;;;;;;;5.01;93.07;102859.00;5022345;28;20029;-60
2022/01/29 00:27:14;;;;;;;61.28;32.28;;;;;;;5.05;92.90;102860.56;5028226;28;20026;-61
2022/01/29 00:29:41;;;;;;;52.08;25.02;;;;;;;5.06;92.18;102852.59;5024719;28;20444;-59
2022/01/29 00:32:08;;;;;;;59.92;31.58;;;;;;;5.05;92.65;102863.19;5029811;28;20684;-59
2022/01/29 00:34:34;;;;;;;60.85;32.03;;;;;;;5.08;92.76;102850.75;5022827;28;20048;-60
2022/01/29 00:36:59;;;;;;;59.70;32.80;;;;;;;5.01;93.14;102838.81;5016552;28;20021;-60
2022/01/29 00:39:25;;;;;;;62.00;32.63;;;;;;;5.09;92.51;102830.56;5011985;28;20068;-60
2022/01/29 00:41:50;;;;;;;65.95;33.30;;;;;;;5.09;92.30;102836.66;5028537;28;20032;-60
2022/01/29 00:44:16;;;;;;;58.60;31.55;;;;;;;5.15;92.03;102846.03;5029480;28;20480;-61
2022/01/29 00:46:41;;;;;;;61.95;32.72;;;;;;;5.07;92.91;102845.56;5022761;28;20041;-60
2022/01/29 00:49:11;;;;;;;57.85;32.33;;;;;;;5.02;92.75;102831.81;5029753;28;20388;-60
2022/01/29 00:51:36;;;;;;;56.03;32.30;;;;;;;5.15;92.43;102834.66;5029606;28;20127;-60
2022/01/29 00:54:02;;;;;;;58.83;32.42;;;;;;;5.27;91.82;102838.47;5029657;28;21470;-59
2022/01/29 00:56:27;;;;;;;59.10;31.85;;;;;;;5.18;92.42;102829.25;5028375;28;20539;-60
2022/01/29 00:58:52;;;;;;;59.97;31.48;;;;;;;5.18;92.49;102822.19;5027441;28;20458;-61
2022/01/29 01:01:18;;;;;;;54.17;32.45;;;;;;;5.11;93.29;102828.72;5019828;28;20039;-60
2022/01/29 01:03:43;;;;;;;59.67;32.83;;;;;;;5.11;93.44;102823.44;5021053;28;20087;-60
2022/01/29 01:06:09;;;;;;;62.78;32.40;;;;;;;5.11;92.64;102819.06;5024661;28;20034;-60
2022/01/29 01:08:34;;;;;;;56.95;32.20;;;;;;;5.13;93.63;102821.56;5030363;28;20036;-62
2022/01/29 01:10:59;;;;;;;58.78;32.35;;;;;;;5.13;93.80;102811.06;5022694;28;20029;-60
2022/01/29 01:13:25;;;;;;;59.13;32.60;;;;;;;5.08;93.89;102802.56;5028756;28;20041;-60
2022/01/29 01:15:50;;;;;;;58.90;32.55;;;;;;;5.13;94.11;102795.28;5027072;28;20045;-60
2022/01/29 01:18:16;;;;;;;62.10;32.08;;;;;;;5.15;93.60;102788.19;5025152;28;20472;-60
2022/01/29 01:20:41;;;;;;;56.75;32.50;;;;;;;5.25;93.08;102778.88;5028763;28;20115;-59
2022/01/29 01:23:06;;;;;;;58.05;31.50;;;;;;;5.22;93.83;102784.31;5016998;28;20041;-60
2022/01/29 01:25:32;;;;;;;59.55;31.33;;;;;;;5.13;93.60;102774.25;5027343;28;20030;-60
2022/01/29 01:27:57;;;;;;;56.47;32.53;;;;;;;5.15;94.33;102766.28;5026897;28;20034;-60
2022/01/29 01:30:23;;;;;;;59.30;33.15;;;;;;;5.10;94.58;102753.38;5025088;28;20763;-60
2022/01/29 01:32:48;;;;;;;58.28;32.60;;;;;;;5.13;94.13;102763.72;5022769;28;20035;-59
2022/01/29 01:35:22;;;;;;;62.30;33.97;;;;;;;5.06;95.04;102747.41;5027222;28;20082;-59
2022/01/29 01:37:55;;;;;;;58.80;33.10;;;;;;;5.09;94.95;102746.41;5029913;28;20029;-60
2022/01/29 01:40:22;;;;;;;61.70;33.33;;;;;;;5.02;95.43;102737.16;5020039;28;20494;-59
2022/01/29 01:42:48;;;;;;;55.20;27.70;;;;;;;5.04;95.19;102743.16;5016433;28;20076;-61
2022/01/29 01:45:13;;;;;;;59.33;31.58;;;;;;;5.04;95.72;102748.44;5024418;28;20061;-61
2022/01/29 01:47:39;;;;;;;59.85;32.75;;;;;;;5.03;95.83;102752.81;5028793;28;20539;-60
2022/01/29 01:50:06;;;;;;;57.80;32.20;;;;;;;5.07;95.04;102743.00;5020547;28;20034;-60
2022/01/29 01:52:32;;;;;;;59.38;33.00;;;;;;;4.95;96.57;102734.78;5025435;28;20029;-61
2022/01/29 01:54:57;;;;;;;58.05;29.23;;;;;;;5.00;95.91;102736.34;5026059;28;20034;-60
2022/01/29 01:57:22;;;;;;;59.92;33.33;;;;;;;4.98;95.93;102724.13;5024470;28;20503;-59
2022/01/29 01:59:48;;;;;;;58.28;32.38;;;;;;;5.11;96.32;102734.03;5027607;28;20046;-61
2022/01/29 02:02:13;;;;;;;55.35;30.85;;;;;;;5.06;96.60;102726.38;5016356;28;20034;-60
2022/01/29 02:04:39;;;;;;;60.15;33.58;;;;;;;4.92;97.82;102719.19;5025213;28;20159;-60
2022/01/29 02:07:04;;;;;;;55.28;31.08;;;;;;;4.94;98.15;102713.88;5017548;28;20038;-60
2022/01/29 02:09:31;;;;;;;53.58;31.95;;;;;;;4.93;97.84;102713.00;5028015;28;20033;-60
2022/01/29 02:11:59;;;;;;;50.83;29.50;;;;;;;5.05;96.40;102708.91;5025973;28;20380;-62
2022/01/29 02:14:28;;;;;;;53.60;30.90;;;;;;;4.94;97.21;102700.72;5015962;28;20121;-60
2022/01/29 02:16:54;;;;;;;52.15;30.95;;;;;;;4.90;98.50;102700.03;5020758;28;20029;-60
2022/01/29 02:19:19;;;;;;;49.72;30.63;;;;;;;4.91;97.70;102699.09;5026407;28;20032;-60
2022/01/29 02:21:45;;;;;;;50.65;30.98;;;;;;;4.90;97.60;102702.66;5026688;28;20041;-59
2022/01/29 02:24:10;;;;;;;50.03;29.92;;;;;;;4.90;98.04;102694.75;5021216;28;20029;-61
2022/01/29 02:26:35;;;;;;;51.25;30.08;;;;;;;5.00;97.48;102694.28;5022891;28;20168;-60
2022/01/29 02:29:01;;;;;;;48.33;26.05;;;;;;;5.03;97.68;102684.44;5023651;28;20045;-60
2022/01/29 02:31:26;;;;;;;53.35;30.35;;;;;;;5.01;98.06;102688.94;5024838;28;20511;-61
2022/01/29 02:33:52;;;;;;;50.60;30.45;;;;;;;5.00;98.09;102689.03;5014136;28;20031;-62
2022/01/29 02:36:17;;;;;;;49.28;26.40;;;;;;;4.99;97.99;102680.31;5017447;28;20480;-61
2022/01/29 02:38:43;;;;;;;50.35;29.80;;;;;;;4.89;98.21;102679.91;5026964;28;20030;-62
2022/01/29 02:41:08;;;;;;;44.00;24.65;;;;;;;5.13;97.37;102674.28;5023853;28;20021;-62
2022/01/29 02:43:47;;;;;;;46.90;27.65;;;;;;;5.05;97.72;102677.34;5026124;28;20052;-61
2022/01/29 02:49:21;;;;;;;49.95;28.52;;;;;;;4.96;98.54;102673.41;4972584;28;20553;-61
2022/01/29 02:51:49;;;;;;;51.38;29.02;;;;;;;4.97;98.74;102666.34;5020630;28;20041;-61
2022/01/29 02:54:14;;;;;;;52.42;29.42;;;;;;;5.07;98.61;102674.63;5026508;28;20460;-61
2022/01/29 02:56:40;;;;;;;49.13;28.92;;;;;;;5.05;98.43;102666.84;5023187;28;20041;-62
2022/01/29 02:59:05;;;;;;;50.47;26.60;;;;;;;5.10;98.18;102666.59;5021252;28;20079;-60
2022/01/29 03:01:31;;;;;;;49.50;28.42;;;;;;;5.09;98.14;102657.84;5025371;28;20037;-60
2022/01/29 03:03:56;;;;;;;46.80;27.10;;;;;;;5.07;99.04;102664.97;5021962;28;20476;-59
2022/01/29 03:06:22;;;;;;;48.70;28.23;;;;;;;5.10;98.31;102658.69;5014909;28;20030;-60
2022/01/29 03:08:47;;;;;;;50.00;28.23;;;;;;;5.02;99.60;102660.88;5021532;28;20079;-60
2022/01/29 03:11:13;;;;;;;55.63;28.73;;;;;;;5.00;100.00;102649.56;5024947;28;20683;-60
2022/01/29 03:13:38;;;;;;;50.42;27.63;;;;;;;5.00;100.00;102658.31;5028093;28;20025;-60
2022/01/29 03:16:03;;;;;;;46.53;26.67;;;;;;;5.11;99.77;102655.13;5018946;28;20063;-60
2022/01/29 03:18:29;;;;;;;46.83;25.85;;;;;;;5.04;99.95;102648.50;5019926;28;20099;-59
2022/01/29 03:20:54;;;;;;;48.80;28.08;;;;;;;4.99;99.72;102640.84;5017308;28;20045;-60
2022/01/29 03:23:19;;;;;;;49.35;28.30;;;;;;;5.02;100.00;102634.59;5026543;28;20116;-59
2022/01/29 03:25:44;;;;;;;49.10;28.15;;;;;;;5.05;99.56;102630.03;5026377;28;20045;-59
2022/01/29 03:28:10;;;;;;;51.53;29.23;;;;;;;5.06;100.00;102636.09;5016770;28;20035;-60
2022/01/29 03:30:35;;;;;;;51.30;28.27;;;;;;;5.02;99.97;102616.19;5024642;28;20484;-60
2022/01/29 03:33:00;;;;;;;53.17;28.35;;;;;;;5.06;100.00;102626.44;5023073;28;20026;-60
2022/01/29 03:35:25;;;;;;;52.10;27.27;;;;;;;5.05;100.00;102623.91;5023489;28;20057;-60
2022/01/29 03:37:51;;;;;;;51.90;29.20;;;;;;;5.04;100.00;102623.03;5019262;28;20029;-61
2022/01/29 03:40:16;;;;;;;55.80;30.45;;;;;;;5.06;100.00;102617.69;5026544;28;20026;-60
2022/01/29 03:42:57;;;;;;;53.22;29.73;;;;;;;5.05;100.00;102619.50;5020744;28;20031;-60
2022/01/29 03:45:22;;;;;;;54.45;29.55;;;;;;;5.12;100.00;102609.47;5019819;28;20022;-60
2022/01/29 03:47:48;;;;;;;58.22;31.40;;;;;;;5.04;100.00;102596.75;5019223;28;20056;-61
2022/01/29 03:50:13;;;;;;;60.00;30.33;;;;;;;5.03;100.00;102602.09;5026429;28;20031;-60
2022/01/29 03:52:38;;;;;;;47.65;26.08;;;;;;;5.14;100.00;102602.38;5025368;28;20044;-61
2022/01/29 03:55:05;;;;;;;51.03;25.63;;;;;;;5.23;99.59;102608.94;5021806;28;20033;-60
2022/01/29 03:57:30;;;;;;;49.75;28.45;;;;;;;5.14;100.00;102607.66;5020806;28;20029;-60
2022/01/29 03:59:56;;;;;;;49.25;27.30;;;;;;;5.10;100.00;102601.66;5024087;28;20474;-60
2022/01/29 04:02:21;;;;;;;52.53;28.48;;;;;;;5.11;100.00;102594.66;5023840;28;20037;-61
2022/01/29 04:04:46;;;;;;;51.95;27.92;;;;;;;5.10;100.00;102592.94;5022986;28;20522;-61
2022/01/29 04:07:12;;;;;;;53.20;29.23;;;;;;;5.08;100.00;102594.81;5025038;28;20057;-60
2022/01/29 04:09:39;;;;;;;52.60;28.33;;;;;;;5.07;100.00;102595.72;5026634;28;20033;-60
2022/01/29 04:12:05;;;;;;;50.97;26.88;;;;;;;5.11;100.00;102592.88;5024408;28;20025;-62
2022/01/29 04:14:38;;;;;;;46.28;26.40;;;;;;;5.15;100.00;102593.56;5019579;28;20045;-61
2022/01/29 04:17:04;;;;;;;47.20;26.48;;;;;;;5.16;100.00;102595.25;5027331;28;20021;-60
2022/01/29 04:19:30;;;;;;;45.35;25.40;;;;;;;5.15;100.00;102593.56;5023806;28;20029;-62
2022/01/29 04:21:55;;;;;;;45.25;25.67;;;;;;;5.38;99.99;102599.38;5020817;28;20532;-61
2022/01/29 04:24:21;;;;;;;44.35;24.35;;;;;;;5.28;100.00;102588.47;5024105;28;20037;-61
2022/01/29 04:26:46;;;;;;;44.45;24.95;;;;;;;5.28;100.00;102572.69;5015378;28;20034;-61
2022/01/29 04:29:11;;;;;;;44.20;25.55;;;;;;;5.31;100.00;102583.06;5017818;28;20049;-61
2022/01/29 04:31:43;;;;;;;46.67;25.08;;;;;;;5.24;100.00;102577.25;5025203;28;20057;-61
2022/01/29 04:34:08;;;;;;;43.53;23.30;;;;;;;5.34;100.00;102571.50;5022291;28;20033;-61
2022/01/29 04:36:34;;;;;;;43.63;24.70;;;;;;;5.31;100.00;102567.25;5023734;28;20096;-60
2022/01/29 04:38:59;;;;;;;44.78;24.77;;;;;;;5.34;100.00;102574.16;5025634;28;20136;-61
2022/01/29 04:41:25;;;;;;;42.65;22.83;;;;;;;5.42;100.00;102564.03;5025840;28;20036;-61
2022/01/29 04:43:50;;;;;;;44.80;24.60;;;;;;;5.43;100.00;102559.63;5026112;28;20117;-63
2022/01/29 04:46:15;;;;;;;48.35;25.42;;;;;;;5.39;100.00;102564.22;5021959;28;20026;-61
2022/01/29 04:48:41;;;;;;;44.85;25.75;;;;;;;5.38;100.00;102562.53;5026886;28;20391;-61
2022/01/29 04:51:06;;;;;;;49.25;26.02;;;;;;;5.37;100.00;102556.41;5026484;28;20415;-61
2022/01/29 04:53:32;;;;;;;48.85;25.73;;;;;;;5.55;100.00;102563.34;5026225;28;20460;-60
2022/01/29 04:55:57;;;;;;;44.40;25.90;;;;;;;5.54;100.00;102559.03;5026061;28;20465;-61
2022/01/29 04:58:22;;;;;;;46.50;27.73;;;;;;;5.43;100.00;102543.84;5021931;28;20061;-60
2022/01/29 05:00:48;;;;;;;44.72;25.50;;;;;;;5.56;100.00;102549.25;5013438;28;20377;-60
2022/01/29 05:03:14;;;;;;;47.90;26.52;;;;;;;5.46;100.00;102539.25;5025447;28;20148;-60
2022/01/29 05:05:41;;;;;;;49.55;27.35;;;;;;;5.45;100.00;102540.19;5023039;28;20033;-61
2022/01/29 05:08:06;;;;;;;49.30;27.48;;;;;;;5.49;100.00;102536.44;5027938;28;20448;-61
2022/01/29 05:10:34;;;;;;;50.83;26.92;;;;;;;5.46;100.00;102544.53;5027839;28;20029;-60
2022/01/29 05:13:12;;;;;;;50.00;27.65;;;;;;;5.48;100.00;102537.38;5023804;28;20056;-61
2022/01/29 05:15:46;;;;;;;50.53;28.23;;;;;;;5.59;100.00;102528.03;5021465;28;20069;-61
2022/01/29 05:29:11;;;;;;;52.28;28.27;;;;;;;5.65;100.00;102511.91;5022420;28;20184;-60
2022/01/29 05:31:37;;;;;;;55.10;29.75;;;;;;;5.62;100.00;102509.44;5024077;28;20715;-60
2022/01/29 05:34:03;;;;;;;52.58;29.13;;;;;;;5.61;100.00;102513.00;5027446;28;20041;-61
2022/01/29 05:36:28;;;;;;;55.13;29.33;;;;;;;5.67;100.00;102514.44;5028524;28;20040;-60
2022/01/29 05:38:54;;;;;;;55.13;30.58;;;;;;;5.71;100.00;102519.44;5022810;28;20026;-60
2022/01/29 05:41:19;;;;;;;52.80;29.70;;;;;;;5.66;100.00;102518.84;5025091;28;20068;-62
2022/01/29 05:43:44;;;;;;;53.30;28.73;;;;;;;5.73;100.00;102522.81;5022757;28;20045;-62
2022/01/29 05:46:14;;;;;;;48.38;26.65;;;;;;;5.82;100.00;102518.81;5026394;28;20033;-63
2022/01/29 05:48:40;;;;;;;50.08;29.60;;;;;;;5.78;100.00;102520.78;5026501;28;20653;-60
2022/01/29 05:51:06;;;;;;;59.28;30.52;;;;;;;5.78;100.00;102512.88;5026734;28;20161;-61
2022/01/29 05:53:32;;;;;;;51.22;30.00;;;;;;;5.81;100.00;102511.03;5026843;28;20169;-60
2022/01/29 05:55:57;;;;;;;55.22;30.15;;;;;;;5.79;100.00;102504.03;5023935;28;20038;-60
2022/01/29 05:58:22;;;;;;;50.65;28.58;;;;;;;5.84;100.00;102511.69;5020772;28;20052;-61
2022/01/29 06:00:47;;;;;;;56.25;31.00;;;;;;;5.72;100.00;102497.44;5015185;28;20088;-61
2022/01/29 06:03:13;;;;;;;51.33;25.70;;;;;;;5.90;100.00;102492.06;5017912;28;20089;-62
2022/01/29 06:05:38;;;;;;;52.53;29.90;;;;;;;5.93;100.00;102497.16;5022004;28;20072;-60
2022/01/29 06:08:04;;;;;;;57.75;31.42;;;;;;;5.85;100.00;102494.09;5019092;28;20037;-60
2022/01/29 06:10:29;;;;;;;55.63;31.38;;;;;;;5.86;100.00;102493.16;5021360;28;20025;-60
2022/01/29 06:13:08;;;;;;;56.22;31.58;;;;;;;5.88;100.00;102483.41;5020699;28;20565;-63
2022/01/29 06:15:37;;;;;;;55.00;31.10;;;;;;;5.86;100.00;102494.03;5024324;28;20384;-61
2022/01/29 06:18:03;;;;;;;55.38;29.85;;;;;;;5.90;100.00;102489.41;5027222;28;20021;-60
2022/01/29 06:20:28;;;;;;;54.38;31.10;;;;;;;5.89;100.00;102487.72;5027682;28;20484;-61
2022/01/29 06:22:54;;;;;;;54.45;31.75;;;;;;;5.93;100.00;102491.88;5022190;28;20115;-61
2022/01/29 06:25:19;;;;;;;50.92;31.58;;;;;;;5.98;100.00;102481.94;5022155;28;20408;-60
2022/01/29 06:27:45;;;;;;;57.00;31.73;;;;;;;5.98;100.00;102484.56;5019638;28;20107;-61
2022/01/29 06:30:12;;;;;;;51.00;31.67;;;;;;;6.07;100.00;102480.53;5024262;28;20045;-60
2022/01/29 06:32:37;;;;;;;50.63;30.83;;;;;;;6.08;100.00;102486.66;5024868;28;20125;-62
2022/01/29 06:35:03;;;;;;;53.08;31.27;;;;;;;6.07;100.00;102484.97;5021249;28;20104;-60
2022/01/29 06:37:28;;;;;;;55.47;31.20;;;;;;;6.03;100.00;102479.88;5022216;28;20025;-60
2022/01/29 06:39:54;;;;;;;58.50;32.50;;;;;;;6.04;100.00;102480.75;5023963;28;20515;-61
2022/01/29 06:42:19;;;;;;;54.70;31.17;;;;;;;6.04;100.00;102492.13;5026164;28;20017;-61
2022/01/29 06:44:44;;;;;;;53.80;32.08;;;;;;;6.09;100.00;102483.97;5024188;28;20516;-61
2022/01/29 06:47:09;;;;;;;51.50;31.52;;;;;;;6.03;100.00;102464.09;5027234;28;20033;-60
2022/01/29 06:49:35;;;;;;;54.08;30.90;;;;;;;6.11;100.00;102468.06;5027460;28;20030;-61
2022/01/29 06:52:00;;;;;;;53.08;32.40;;;;;;;6.15;100.00;102466.91;5019128;28;20405;-60
2022/01/29 06:54:25;;;;;;;56.47;31.67;;;;;;;6.15;100.00;102472.19;5026116;28;20038;-61
2022/01/29 06:56:50;;;;;;;57.28;32.42;;;;;;;6.13;100.00;102469.63;5027150;28;20032;-60
2022/01/29 06:59:16;;;;;;;53.53;31.05;;;;;;;6.25;100.00;102457.53;5026438;28;20477;-61
2022/01/29 07:01:41;;;;;;;52.63;31.20;;;;;;;6.23;100.00;102454.16;5026997;28;21280;-61
2022/01/29 07:04:06;;;;;;;50.00;30.55;;;;;;;6.21;100.00;102452.56;5025137;28;20053;-62
2022/01/29 07:06:32;;;;;;;46.70;28.63;;;;;;;6.37;100.00;102449.81;5013754;28;20076;-60
2022/01/29 07:08:58;;;;;;;51.00;31.95;;;;;;;6.29;100.00;102448.50;5023861;28;20090;-61
2022/01/29 07:11:24;;;;;;;52.17;31.00;;;;;;;6.25;100.00;102444.38;5026076;28;20041;-60
2022/01/29 07:14:00;;;;;;;52.33;31.05;;;;;;;6.25;100.00;102447.00;5022439;28;20040;-61
2022/01/29 07:16:25;;;;;;;49.25;30.00;;;;;;;6.29;100.00;102448.50;5023554;28;20033;-61
2022/01/29 07:18:51;;;;;;;48.45;30.17;;;;;;;6.33;100.00;102444.72;5026183;28;20052;-61
2022/01/29 07:21:16;;;;;;;49.88;29.60;;;;;;;6.39;100.00;102442.66;5023294;28;20103;-60
2022/01/29 07:23:41;;;;;;;48.50;30.42;;;;;;;6.33;100.00;102450.00;5025296;28;20542;-62
2022/01/29 07:26:06;;;;;;;51.97;29.48;;;;;;;6.37;100.00;102447.19;5020397;28;20033;-61
2022/01/29 07:28:32;;;;;;;49.47;29.27;;;;;;;6.43;100.00;102444.19;5017792;28;20539;-60
2022/01/29 07:30:57;;;;;;;51.00;29.80;;;;;;;6.43;100.00;102433.63;5023212;28;20040;-59
2022/01/29 07:33:22;;;;;;;47.33;29.63;;;;;;;6.48;100.00;102451.78;5023174;28;20037;-59
2022/01/29 07:35:48;;;;;;;45.88;28.83;;;;;;;6.47;100.00;102443.06;5017523;28;20080;-60
2022/01/29 07:38:14;;;;;;;48.28;29.17;;;;;;;6.44;100.00;102440.59;5013017;28;20549;-59
2022/01/29 07:40:39;;;;;;;46.50;29.65;;;;;;;6.54;100.00;102447.00;5014817;28;20068;-61
2022/01/29 07:43:04;;;;;;;45.83;28.90;;;;;;;6.56;100.00;102434.56;5024356;28;20480;-61
2022/01/29 07:45:30;;;;;;;47.55;30.05;;;;;;;6.51;100.00;102436.63;5022737;28;20029;-61
2022/01/29 07:47:55;;;;;;;49.97;30.73;;;;;;;6.59;100.00;102439.66;5025301;28;20483;-61
2022/01/29 07:50:21;;;;;;;47.75;29.88;;;;;;;6.53;100.00;102440.03;5026134;28;20038;-61
2022/01/29 07:52:46;;;;;;;48.40;29.10;;;;;;;6.61;100.00;102442.19;5015059;28;21007;-61
2022/01/29 07:55:11;;;;;;;45.25;29.60;;;;;;;6.58;100.00;102437.13;5018424;28;20046;-60
2022/01/29 07:57:36;;;;;;;44.28;29.17;;;;;;;6.70;100.00;102427.56;5025786;28;20041;-61
2022/01/29 08:00:03;;;;;;;42.47;28.65;;;;;;;6.62;100.00;102432.50;5020706;28;20042;-60
2022/01/29 08:02:28;;;;;;;43.47;27.17;;;;;;;6.66;100.00;102428.72;5022233;28;20115;-61
2022/01/29 08:04:54;;;;;;;43.95;27.00;;;;;;;6.69;100.00;102429.38;5022992;28;20101;-61
2022/01/29 08:07:19;;;;;;;44.80;29.00;;;;;;;6.74;100.00;102426.44;5019907;28;20040;-61
2022/01/29 08:09:44;;;;;;;45.33;29.75;;;;;;;6.73;100.00;102414.22;5024825;28;20034;-62
2022/01/29 08:12:10;;;;;;;46.15;27.98;;;;;;;6.82;100.00;102412.78;5027051;28;20026;-61
2022/01/29 08:14:35;;;;;;;45.00;30.00;;;;;;;6.82;100.00;102416.25;5019270;28;20029;-61
2022/01/29 08:17:00;;;;;;;44.95;28.27;;;;;;;6.85;100.00;102418.72;5018934;28;20026;-62
2022/01/29 08:19:25;;;;;;;44.22;28.77;;;;;;;6.90;100.00;102414.94;5020444;28;20030;-62
2022/01/29 08:21:51;;;;;;;43.38;29.15;;;;;;;6.90;100.00;102409.66;5021715;28;20083;-61
2022/01/29 08:24:16;;;;;;;45.42;29.23;;;;;;;6.99;100.00;102409.06;5020886;28;20550;-61
2022/01/29 08:26:41;;;;;;;41.33;28.13;;;;;;;7.03;100.00;102404.44;5018780;28;20083;-62
2022/01/29 08:29:07;;;;;;;43.35;28.75;;;;;;;7.02;100.00;102398.31;5019570;28;20045;-61
2022/01/29 08:31:32;;;;;;;39.55;27.20;;;;;;;7.02;100.00;102398.31;5021666;28;20029;-58
2022/01/29 08:33:58;;;;;;;40.67;27.55;;;;;;;7.11;100.00;102397.72;5022927;28;20025;-58
2022/01/29 08:36:23;;;;;;;41.40;27.50;;;;;;;7.02;100.00;102382.50;5017366;28;20032;-62
2022/01/29 08:38:49;;;;;;;40.47;27.92;;;;;;;7.15;100.00;102392.25;5015693;28;20037;-62
2022/01/29 08:41:14;;;;;;;37.70;26.92;;;;;;;7.19;100.00;102393.72;5020431;28;20105;-62
2022/01/29 08:43:39;;;;;;;40.17;26.63;;;;;;;7.20;100.00;102390.16;5018954;28;20400;-61
2022/01/29 08:46:05;;;;;;;40.70;26.70;;;;;;;7.13;100.00;102385.28;5023826;28;20033;-61
2022/01/29 08:48:30;;;;;;;36.72;24.55;;;;;;;7.24;100.00;102391.63;5015875;28;20032;-60
2022/01/29 08:50:55;;;;;;;39.35;25.42;;;;;;;7.17;100.00;102382.44;5023775;28;20735;-61
2022/01/29 08:53:21;;;;;;;40.42;26.83;;;;;;;7.17;100.00;102382.44;5018311;28;20030;-58
2022/01/29 08:55:46;;;;;;;33.83;22.10;;;;;;;7.37;100.00;102381.13;5019759;28;20041;-57
2022/01/29 08:58:12;;;;;;;38.03;26.58;;;;;;;7.36;100.00;102374.16;5020282;28;20029;-56
2022/01/29 09:00:41;;;;;;;38.75;27.17;;;;;;;7.33;100.00;102379.63;5025198;28;20601;-57
2022/01/29 09:03:07;;;;;;;39.92;27.48;;;;;;;7.27;100.00;102380.88;5019704;28;20037;-57
2022/01/29 09:05:34;;;;;;;36.95;26.65;;;;;;;7.34;100.00;102371.59;5017128;28;20030;-56
2022/01/29 09:08:00;;;;;;;39.15;26.92;;;;;;;7.35;100.00;102368.00;5025859;28;20030;-56
2022/01/29 09:10:27;;;;;;;36.60;26.73;;;;;;;7.35;100.00;102368.00;5023157;28;20033;-57
2022/01/29 09:12:52;;;;;;;36.03;25.63;;;;;;;7.43;100.00;102371.94;5026023;28;20132;-57
2022/01/29 09:15:17;;;;;;;37.17;26.25;;;;;;;7.37;100.00;102366.13;5022488;28;20160;-56
2022/01/29 09:17:43;;;;;;;37.30;25.65;;;;;;;7.51;100.00;102367.00;5027348;28;20052;-56
2022/01/29 09:20:10;;;;;;;35.55;24.90;;;;;;;7.53;100.00;102365.94;5023419;28;20044;-57
2022/01/29 09:22:35;;;;;;;33.15;22.55;;;;;;;7.64;100.00;102362.56;5020983;28;20037;-57
2022/01/29 09:25:00;;;;;;;36.55;25.42;;;;;;;7.54;100.00;102356.22;5022598;28;20029;-58
2022/01/29 09:27:26;;;;;;;34.80;24.35;;;;;;;7.57;100.00;102350.75;5023091;28;20025;-58
2022/01/29 09:29:51;;;;;;;37.30;24.83;;;;;;;7.52;100.00;102364.25;5018883;28;20154;-57
2022/01/29 09:32:16;;;;;;;33.88;23.30;;;;;;;7.55;100.00;102363.19;5027348;28;20030;-61
2022/01/29 09:34:41;;;;;;;32.33;21.88;;;;;;;7.60;100.00;102361.06;5025757;28;20029;-61
2022/01/29 09:37:07;;;;;;;30.17;19.52;;;;;;;7.66;100.00;102350.09;5029682;28;20109;-61
2022/01/29 09:39:32;;;;;;;36.47;24.02;;;;;;;7.73;100.00;102361.09;5028029;28;20528;-63
2022/01/29 09:41:58;;;;;;;31.77;22.98;;;;;;;7.71;100.00;102356.88;5024681;28;20033;-59
2022/01/29 09:44:23;;;;;;;33.20;24.30;;;;;;;7.74;100.00;102361.97;5026824;28;20674;-61
2022/01/29 09:46:52;;;;;;;31.02;23.10;;;;;;;7.80;100.00;102356.25;5020776;28;20037;-61
2022/01/29 09:49:18;;;;;;;30.15;21.27;;;;;;;7.81;100.00;102360.56;5023409;28;20051;-61
2022/01/29 09:51:44;;;;;;;30.38;22.75;;;;;;;7.84;100.00;102363.00;5027733;28;20031;-61
2022/01/29 09:54:10;;;;;;;34.85;23.63;;;;;;;7.90;99.96;102362.56;5027209;28;20029;-61
2022/01/29 09:56:35;;;;;;;30.73;22.25;;;;;;;8.01;98.85;102368.91;5027924;28;20030;-61
2022/01/29 09:59:01;;;;;;;30.63;23.45;;;;;;;7.97;98.97;102363.00;5018761;28;20037;-60
2022/01/29 10:01:26;;;;;;;32.30;23.27;;;;;;;7.98;99.61;102369.13;5023984;28;20026;-60
2022/01/29 10:04:04;;;;;;;32.22;20.38;;;;;;;8.12;98.60;102363.72;5026105;28;20028;-61
2022/01/29 10:06:29;;;;;;;30.95;22.25;;;;;;;8.21;97.55;102360.41;5028858;28;20052;-61
2022/01/29 10:08:55;;;;;;;30.98;23.30;;;;;;;8.12;97.91;102355.81;5022370;28;20488;-63
2022/01/29 10:11:24;;;;;;;31.63;20.00;;;;;;;8.26;96.50;102353.97;5023539;28;20041;-61
2022/01/29 10:13:51;;;;;;;28.83;22.15;;;;;;;8.29;96.69;102351.13;5022482;28;20037;-61
2022/01/29 10:16:20;;;;;;;29.15;20.88;;;;;;;8.32;96.06;102350.91;5023402;28;20044;-62
2022/01/29 10:19:07;;;;;;;26.65;20.58;;;;;;;8.42;97.03;102351.94;5026809;28;20041;-64
2022/01/29 10:21:33;;;;;;;31.17;21.67;;;;;;;8.31;96.20;102354.50;5012576;28;20053;-61
2022/01/29 10:24:03;;;;;;;28.70;21.55;;;;;;;8.37;96.31;102346.13;5026917;28;20108;-62
2022/01/29 10:26:36;;;;;;;27.75;20.05;;;;;;;8.43;95.66;102332.47;5027968;28;20039;-61
2022/01/29 10:29:06;;;;;;;31.33;21.48;;;;;;;8.32;95.96;102333.25;5028196;28;20073;-61
2022/01/29 10:31:41;;;;;;;28.35;20.33;;;;;;;8.34;96.90;102333.16;5021979;28;20033;-61
2022/01/29 10:34:20;;;;;;;28.27;20.60;;;;;;;8.37;96.92;102327.63;5024452;28;20033;-62
2022/01/29 10:37:06;;;;;;;27.67;20.27;;;;;;;8.35;96.21;102308.41;5024422;28;20103;-61
2022/01/29 10:39:32;;;;;;;27.05;19.13;;;;;;;8.47;95.33;102312.78;5018576;28;20496;-62
2022/01/29 10:42:12;;;;;;;24.80;19.02;;;;;;;8.47;95.57;102302.22;5026712;28;20036;-61
2022/01/29 10:44:43;;;;;;;24.55;19.13;;;;;;;8.47;95.45;102320.72;5024116;28;20043;-61
2022/01/29 10:47:09;;;;;;;25.17;18.85;;;;;;;8.51;95.36;102307.28;5028151;28;20026;-60
2022/01/29 10:49:35;;;;;;;24.50;16.73;;;;;;;8.61;94.43;102313.63;5025728;28;20034;-61
2022/01/29 10:52:09;;;;;;;22.95;16.17;;;;;;;8.75;92.63;102289.63;5018082;28;20044;-61
2022/01/29 10:54:39;;;;;;;24.55;16.15;;;;;;;8.74;93.15;102301.16;5024751;28;20037;-62
2022/01/29 10:57:10;;;;;;;22.92;16.17;;;;;;;8.82;92.21;102299.75;5021983;28;20440;-63
2022/01/29 10:59:45;;;;;;;22.42;15.80;;;;;;;8.71;93.10;102300.56;5018623;28;20068;-61
2022/01/29 11:02:11;;;;;;;21.35;15.68;;;;;;;8.71;93.30;102304.06;5019616;28;20137;-61
2022/01/29 11:04:38;;;;;;;18.58;13.23;;;;;;;8.83;92.26;102293.53;5019200;28;20029;-61
2022/01/29 11:07:08;;;;;;;20.50;14.80;;;;;;;8.89;91.73;102295.72;5021680;28;20454;-61
2022/01/29 11:09:34;;;;;;;20.45;13.25;;;;;;;8.91;91.25;102288.50;5024059;28;20045;-61
2022/01/29 11:12:03;;;;;;;18.30;12.63;;;;;;;8.90;91.80;102286.81;5021802;28;20033;-60
2022/01/29 11:14:31;;;;;;;19.25;12.98;;;;;;;8.85;90.92;102278.38;5021174;28;20037;-61
2022/01/29 11:16:59;;;;;;;18.35;12.82;;;;;;;8.88;91.05;102284.28;5021567;28;20407;-61
2022/01/29 11:19:24;;;;;;;16.58;11.15;;;;;;;9.02;90.20;102280.59;5017135;28;20041;-61
2022/01/29 11:21:53;;;;;;;18.52;11.13;;;;;;;9.03;90.03;102268.19;5022324;28;20500;-61